Terminal Aerodrome Forecast
Issued by NWS

Home | Current Version | Previous Version | Text Only | Print | Product List | Glossary On
Versions: 1 2 3 4 5 6 7 8 9 10 11 12 13 14 15 16 17 18 19 20 21 22 23 24 25 26 27 28 29 30
000
FTUS44 KOUN 290344 AAA
TAFLAW
TAF AMD
KLAW 290344Z 2904/2924 35025G30KT 4SM TSRA BR BKN020 OVC040CB
     FM290800 06006KT 5SM BR SCT005 BKN200
     FM291200 14007KT 5SM BR SCT005 BKN200
     FM291500 20010KT P6SM SCT012
     FM292200 32012KT P6SM SCT035=

USA.gov is the U.S. government's official web portal to all federal, state and local government web resources and services.